createdAt,value
2023-02-22T00:00:49.457Z,5.67
2023-02-22T00:03:17.958Z,5.67
2023-02-22T00:05:47.489Z,5.73
2023-02-22T00:08:16.808Z,5.70
2023-02-22T00:10:45.691Z,6.00
2023-02-22T00:13:14.838Z,5.17
2023-02-22T00:15:41.513Z,5.17
2023-02-22T00:18:13.675Z,4.90
2023-02-22T00:20:40.985Z,4.63
2023-02-22T00:23:14.276Z,4.70
2023-02-22T00:25:40.936Z,4.23
2023-02-22T00:28:07.969Z,4.77
2023-02-22T00:30:34.734Z,3.97
2023-02-22T00:33:01.804Z,4.30
2023-02-22T00:35:31.212Z,3.70
2023-02-22T00:38:02.326Z,3.93
2023-02-22T00:40:33.267Z,3.87
2023-02-22T00:43:02.286Z,3.90
2023-02-22T00:45:32.018Z,3.87
2023-02-22T00:47:59.440Z,3.80
2023-02-22T00:50:28.487Z,4.10
2023-02-22T00:52:56.957Z,4.23
2023-02-22T00:55:30.012Z,4.23
2023-02-22T00:57:57.537Z,3.90
2023-02-22T01:00:29.216Z,4.77
2023-02-22T01:02:57.189Z,3.97
2023-02-22T01:05:27.271Z,4.23
2023-02-22T01:07:55.887Z,3.40
2023-02-22T01:10:25.216Z,3.80
2023-02-22T01:12:52.688Z,3.70
2023-02-22T01:15:24.047Z,3.50
2023-02-22T01:17:53.543Z,3.83
2023-02-22T01:20:22.872Z,3.33
2023-02-22T01:22:51.078Z,3.93
2023-02-22T01:25:23.631Z,4.07
2023-02-22T01:27:52.526Z,3.90
2023-02-22T01:30:25.405Z,3.47
2023-02-22T01:32:52.998Z,3.73
2023-02-22T01:35:24.919Z,3.23
2023-02-22T01:37:51.831Z,3.57
2023-02-22T01:40:22.817Z,4.00
2023-02-22T01:42:53.006Z,3.17
2023-02-22T01:45:34.643Z,4.10
2023-02-22T01:48:20.207Z,3.53
2023-02-22T01:51:00.476Z,3.47
2023-02-22T01:53:34.576Z,3.67
2023-02-22T01:56:02.949Z,3.83
2023-02-22T01:58:31.802Z,3.70
2023-02-22T02:00:58.681Z,4.10
2023-02-22T02:03:29.731Z,4.10
2023-02-22T02:06:04.059Z,4.03
2023-02-22T02:09:15.755Z,3.37
2023-02-22T02:11:43.319Z,3.47
2023-02-22T02:14:13.858Z,3.53
2023-02-22T02:16:44.158Z,3.53
2023-02-22T02:19:20.538Z,3.80
2023-02-22T02:22:21.676Z,3.60
2023-02-22T02:25:26.509Z,3.53
2023-02-22T02:28:11.569Z,3.40
2023-02-22T02:30:59.561Z,3.67
2023-02-22T02:33:46.404Z,3.40
2023-02-22T02:36:12.861Z,3.30
2023-02-22T02:38:50.486Z,3.13
2023-02-22T02:41:35.596Z,3.43
2023-02-22T02:44:22.640Z,3.53
2023-02-22T02:47:20.090Z,3.47
2023-02-22T02:50:06.924Z,3.63
2023-02-22T02:52:35.641Z,3.77
2023-02-22T02:55:04.720Z,3.30
2023-02-22T02:57:31.150Z,3.60
2023-02-22T02:59:57.933Z,4.03
2023-02-22T03:02:47.420Z,3.80
2023-02-22T03:05:16.943Z,3.37
2023-02-22T03:07:53.626Z,3.57
2023-02-22T03:10:44.437Z,3.40
2023-02-22T03:13:41.951Z,3.33
2023-02-22T03:16:44.204Z,3.57
2023-02-22T03:19:35.573Z,3.87
2023-02-22T03:22:14.859Z,3.57
2023-02-22T03:24:55.968Z,3.20
2023-02-22T03:27:33.826Z,3.40
2023-02-22T03:30:08.505Z,3.93
2023-02-22T03:32:45.753Z,3.77
2023-02-22T03:35:19.305Z,3.63
2023-02-22T03:37:48.980Z,3.40
2023-02-22T03:40:26.193Z,3.60
2023-02-22T03:42:59.448Z,3.63
2023-02-22T03:45:29.298Z,3.57
2023-02-22T03:48:12.172Z,4.00
2023-02-22T03:50:39.275Z,3.83
2023-02-22T03:53:07.428Z,3.73
2023-02-22T03:55:34.914Z,3.90
2023-02-22T03:58:06.878Z,3.83
2023-02-22T04:00:34.832Z,3.13
2023-02-22T04:03:02.549Z,3.10
2023-02-22T04:05:29.126Z,3.90
2023-02-22T04:07:57.260Z,3.60
2023-02-22T04:10:24.559Z,3.43
2023-02-22T04:12:51.427Z,3.80
2023-02-22T04:15:22.086Z,3.80
2023-02-22T04:17:48.775Z,4.07
2023-02-22T04:20:20.795Z,3.60
2023-02-22T04:22:47.675Z,3.20
2023-02-22T04:25:14.942Z,4.13
2023-02-22T04:27:41.804Z,3.70
2023-02-22T04:30:09.994Z,3.67
2023-02-22T04:32:36.526Z,3.40
2023-02-22T04:35:05.049Z,3.80
2023-02-22T04:37:34.948Z,3.60
2023-02-22T04:40:02.231Z,3.17
2023-02-22T04:42:28.949Z,3.57
2023-02-22T04:44:57.691Z,4.10
2023-02-22T04:47:24.438Z,4.10
2023-02-22T04:49:51.196Z,3.80
2023-02-22T04:52:18.864Z,3.97
2023-02-22T04:54:48.912Z,3.77
2023-02-22T04:57:15.501Z,3.97
2023-02-22T04:59:42.069Z,3.63
2023-02-22T05:02:10.153Z,3.93
2023-02-22T05:04:40.660Z,4.07
2023-02-22T05:07:07.170Z,3.70
2023-02-22T05:09:36.264Z,3.73
2023-02-22T05:12:02.733Z,3.93
2023-02-22T05:14:29.616Z,4.00
2023-02-22T05:16:59.463Z,3.73
2023-02-22T05:19:26.201Z,3.90
2023-02-22T05:21:52.678Z,4.00
2023-02-22T05:24:21.635Z,4.47
2023-02-22T05:26:53.247Z,4.00
2023-02-22T05:29:21.029Z,4.30
2023-02-22T05:31:47.598Z,4.47
2023-02-22T05:34:15.695Z,4.30
2023-02-22T05:36:42.425Z,4.00
2023-02-22T05:39:09.195Z,4.50
2023-02-22T05:41:35.816Z,4.30
2023-02-22T05:44:03.364Z,4.00
2023-02-22T05:46:30.158Z,4.70
2023-02-22T05:48:57.040Z,3.73
2023-02-22T05:51:23.956Z,4.50
2023-02-22T05:53:54.539Z,4.20
2023-02-22T05:56:26.367Z,4.03
2023-02-22T05:58:53.119Z,5.43
2023-02-22T06:01:23.172Z,5.47
2023-02-22T06:03:50.516Z,5.57
2023-02-22T06:06:20.516Z,5.13
2023-02-22T06:08:48.561Z,4.57
2023-02-22T06:11:15.208Z,5.30
2023-02-22T06:13:42.337Z,4.30
2023-02-22T06:16:08.918Z,4.60
2023-02-22T06:18:36.492Z,4.43
2023-02-22T06:21:03.354Z,5.23
2023-02-22T06:23:30.129Z,4.63
2023-02-22T06:25:57.105Z,4.50
2023-02-22T06:28:23.890Z,4.50
2023-02-22T06:30:50.712Z,5.50
2023-02-22T06:33:17.646Z,3.90
2023-02-22T06:35:45.288Z,4.20
2023-02-22T06:38:11.905Z,4.10
2023-02-22T06:40:38.690Z,4.03
2023-02-22T06:43:05.264Z,4.13
2023-02-22T06:45:31.972Z,4.43
2023-02-22T06:47:58.713Z,4.70
2023-02-22T06:50:30.211Z,4.77
2023-02-22T06:52:57.711Z,4.17
2023-02-22T06:55:27.702Z,4.67
2023-02-22T06:57:55.103Z,5.03
2023-02-22T07:00:25.100Z,4.93
2023-02-22T07:02:53.801Z,4.73
2023-02-22T07:05:22.626Z,4.50
2023-02-22T07:07:52.634Z,4.70
2023-02-22T07:10:26.313Z,4.77
2023-02-22T07:12:53.199Z,4.43
2023-02-22T07:15:23.539Z,4.70
2023-02-22T07:17:51.262Z,4.43
2023-02-22T07:20:20.945Z,4.67
2023-02-22T07:22:48.984Z,4.83
2023-02-22T07:25:15.720Z,5.80
2023-02-22T07:27:43.308Z,5.10
2023-02-22T07:30:31.088Z,4.60
2023-02-22T07:33:00.651Z,4.40
2023-02-22T07:35:31.564Z,5.40
2023-02-22T07:37:58.138Z,5.07
2023-02-22T07:40:26.420Z,4.17
2023-02-22T07:43:06.830Z,4.13
2023-02-22T07:45:36.028Z,4.10
2023-02-22T07:48:07.315Z,4.57
2023-02-22T07:50:34.963Z,4.70
2023-02-22T07:53:05.946Z,5.40
2023-02-22T07:55:33.672Z,5.77
2023-02-22T07:58:04.431Z,5.23
2023-02-22T08:00:37.385Z,4.83
2023-02-22T08:03:07.502Z,4.83
2023-02-22T08:05:36.292Z,4.80
2023-02-22T08:08:03.808Z,4.70
2023-02-22T08:10:31.453Z,5.10
2023-02-22T08:12:58.384Z,5.50
2023-02-22T08:15:26.599Z,4.53
2023-02-22T08:17:53.724Z,5.17
2023-02-22T08:20:21.055Z,5.00
2023-02-22T08:22:48.205Z,5.53
2023-02-22T08:25:17.250Z,5.07
2023-02-22T08:27:45.310Z,5.57
2023-02-22T08:30:20.732Z,5.70
2023-02-22T08:32:47.665Z,5.40
2023-02-22T08:35:15.567Z,5.40
2023-02-22T08:37:44.364Z,6.17
2023-02-22T08:40:13.955Z,5.70
2023-02-22T08:42:41.416Z,5.67
2023-02-22T08:45:08.388Z,6.15
2023-02-22T08:47:34.910Z,6.23
2023-02-22T08:50:01.772Z,6.20
2023-02-22T08:52:28.405Z,6.50
2023-02-22T08:54:55.823Z,6.40
2023-02-22T08:57:22.623Z,5.93
2023-02-22T08:59:49.289Z,4.63
2023-02-22T09:02:17.836Z,5.60
2023-02-22T09:04:44.950Z,4.37
2023-02-22T09:07:12.815Z,5.17
2023-02-22T09:09:39.353Z,4.80
2023-02-22T09:12:06.017Z,4.87
2023-02-22T09:14:32.548Z,5.17
2023-02-22T09:16:58.974Z,4.73
2023-02-22T09:19:25.560Z,5.37
2023-02-22T09:22:00.085Z,5.83
2023-02-22T09:24:27.388Z,5.20
2023-02-22T09:26:54.395Z,5.13
2023-02-22T09:29:25.836Z,4.63
2023-02-22T09:31:55.391Z,6.40
2023-02-22T09:34:29.797Z,5.10
2023-02-22T09:36:57.997Z,5.63
2023-02-22T09:39:24.965Z,5.20
2023-02-22T09:42:17.532Z,6.00
2023-02-22T09:44:49.532Z,21.73
2023-02-22T09:47:21.937Z,5.17
2023-02-22T09:49:58.639Z,5.30
2023-02-22T09:52:30.848Z,5.23
2023-02-22T09:55:09.200Z,5.37
2023-02-22T09:57:40.816Z,5.33
2023-02-22T10:00:18.207Z,5.30
2023-02-22T10:02:53.846Z,5.00
2023-02-22T10:05:29.855Z,4.50
2023-02-22T10:08:08.411Z,5.57
2023-02-22T10:10:39.283Z,6.07
2023-02-22T10:13:18.122Z,5.50
2023-02-22T10:16:17.216Z,5.23
2023-02-22T10:19:08.000Z,5.17
2023-02-22T10:21:57.574Z,5.65
2023-02-22T10:24:39.648Z,4.67
2023-02-22T10:27:11.873Z,5.27
2023-02-22T10:29:46.528Z,5.27
2023-02-22T10:32:26.056Z,4.70
2023-02-22T10:34:54.649Z,3.63
2023-02-22T10:37:31.093Z,4.77
2023-02-22T10:40:17.447Z,5.10
2023-02-22T10:42:44.590Z,5.40
2023-02-22T10:45:26.813Z,5.27
2023-02-22T10:47:58.858Z,3.83
2023-02-22T10:50:29.648Z,5.13
2023-02-22T10:52:56.459Z,5.70
2023-02-22T10:55:23.154Z,5.33
2023-02-22T10:57:59.098Z,5.00
2023-02-22T11:00:39.749Z,5.50
2023-02-22T11:03:17.982Z,5.10
2023-02-22T11:05:45.016Z,4.90
2023-02-22T11:08:20.834Z,4.53
2023-02-22T11:10:56.735Z,5.53
2023-02-22T11:13:37.506Z,3.50
2023-02-22T11:16:32.679Z,5.43
2023-02-22T11:19:20.660Z,5.83
2023-02-22T11:21:51.522Z,5.43
2023-02-22T11:24:20.019Z,5.93
2023-02-22T11:26:51.641Z,4.90
2023-02-22T11:29:23.267Z,5.73
2023-02-22T11:31:50.633Z,5.67
2023-02-22T11:34:38.149Z,5.33
2023-02-22T11:37:29.928Z,5.40
2023-02-22T11:40:24.949Z,6.03
2023-02-22T11:43:16.062Z,7.70
2023-02-22T11:46:05.973Z,14.87
2023-02-22T11:48:36.637Z,13.57
2023-02-22T11:51:07.673Z,7.77
2023-02-22T11:53:34.106Z,5.60
2023-02-22T11:56:13.977Z,5.73
2023-02-22T11:58:40.581Z,6.10
2023-02-22T12:01:19.999Z,6.53
2023-02-22T12:04:17.347Z,6.10
2023-02-22T12:06:57.120Z,5.77
2023-02-22T12:09:33.177Z,6.83
2023-02-22T12:12:29.710Z,5.80
2023-02-22T12:15:13.974Z,6.00
2023-02-22T12:18:00.487Z,6.57
2023-02-22T12:20:47.742Z,5.90
2023-02-22T12:23:50.991Z,5.80
2023-02-22T12:26:26.455Z,5.70
2023-02-22T12:28:59.432Z,4.70
2023-02-22T12:31:33.989Z,5.00
2023-02-22T12:34:19.945Z,4.27
2023-02-22T12:36:51.823Z,5.27
2023-02-22T12:39:29.299Z,4.73
2023-02-22T12:42:01.032Z,5.27
2023-02-22T12:44:40.123Z,3.93
2023-02-22T12:47:14.410Z,6.05
2023-02-22T12:50:00.582Z,5.67
2023-02-22T12:52:47.304Z,5.73
2023-02-22T12:55:17.493Z,5.90
2023-02-22T12:58:27.644Z,5.07
2023-02-22T13:01:21.323Z,5.60
2023-02-22T13:03:49.429Z,5.90
2023-02-22T13:06:34.995Z,5.80
2023-02-22T13:09:27.076Z,6.57
2023-02-22T13:12:12.426Z,5.40
2023-02-22T13:14:52.299Z,5.07
2023-02-22T13:17:45.334Z,6.10
2023-02-22T13:20:26.797Z,5.93
2023-02-22T13:23:07.517Z,6.43
2023-02-22T13:25:48.107Z,5.70
2023-02-22T13:28:41.688Z,6.80
2023-02-22T13:31:30.241Z,5.90
2023-02-22T13:34:01.385Z,5.97
2023-02-22T13:36:37.749Z,6.33
2023-02-22T13:39:27.967Z,6.73
2023-02-22T13:42:09.387Z,6.53
2023-02-22T13:45:04.202Z,6.97
2023-02-22T13:48:09.384Z,6.30
2023-02-22T13:50:58.324Z,6.67
2023-02-22T13:53:36.861Z,6.10
2023-02-22T13:56:04.194Z,6.37
2023-02-22T13:58:31.077Z,7.57
2023-02-22T14:01:00.031Z,6.70
2023-02-22T14:03:36.401Z,7.40
2023-02-22T14:06:06.376Z,7.30
2023-02-22T14:08:34.134Z,6.07
2023-02-22T14:11:01.138Z,6.10
2023-02-22T14:13:29.905Z,6.97
2023-02-22T14:16:02.728Z,5.33
2023-02-22T14:18:32.659Z,6.33
2023-02-22T14:21:20.437Z,6.43
2023-02-22T14:23:50.005Z,6.60
2023-02-22T14:26:38.255Z,7.50
2023-02-22T14:29:19.066Z,6.53
2023-02-22T14:31:52.814Z,6.27
2023-02-22T14:34:38.710Z,5.93
2023-02-22T14:37:28.753Z,5.60
2023-02-22T14:40:22.616Z,6.47
2023-02-22T14:42:58.419Z,6.63
2023-02-22T14:45:30.101Z,7.70
2023-02-22T14:48:01.441Z,7.20
2023-02-22T14:50:46.143Z,6.07
2023-02-22T14:53:12.539Z,6.87
2023-02-22T14:55:44.199Z,8.13
2023-02-22T14:58:21.843Z,7.03
2023-02-22T15:00:52.895Z,7.13
2023-02-22T15:03:22.702Z,7.63
2023-02-22T15:05:52.039Z,7.43
2023-02-22T15:08:27.424Z,6.50
2023-02-22T15:10:54.770Z,7.00
2023-02-22T15:13:27.632Z,7.47
2023-02-22T15:16:00.481Z,6.77
2023-02-22T15:18:36.117Z,7.57
2023-02-22T15:21:18.379Z,6.97
2023-02-22T15:23:53.899Z,7.17
2023-02-22T15:26:30.162Z,8.20
2023-02-22T15:28:58.693Z,7.57
2023-02-22T15:31:27.569Z,8.37
2023-02-22T15:33:55.361Z,7.90
2023-02-22T15:36:27.830Z,7.30
2023-02-22T15:38:59.903Z,8.03
2023-02-22T15:41:31.749Z,8.33
2023-02-22T15:44:01.776Z,7.53
2023-02-22T15:46:31.181Z,7.30
2023-02-22T15:49:11.674Z,8.20
2023-02-22T15:51:41.492Z,9.50
2023-02-22T15:54:26.483Z,8.17
2023-02-22T15:56:57.919Z,7.30
2023-02-22T15:59:30.471Z,7.10
2023-02-22T16:01:58.808Z,7.93
2023-02-22T16:04:29.312Z,7.80
2023-02-22T16:07:07.807Z,8.50
2023-02-22T16:09:34.565Z,9.07
2023-02-22T16:12:28.004Z,6.80
2023-02-22T16:14:55.654Z,7.40
2023-02-22T16:17:25.959Z,7.87
2023-02-22T16:19:53.269Z,7.80
2023-02-22T16:22:34.682Z,8.23
2023-02-22T16:25:19.140Z,8.10
2023-02-22T16:27:57.851Z,7.77
2023-02-22T16:30:34.354Z,7.43
2023-02-22T16:33:05.530Z,8.00
2023-02-22T16:35:35.478Z,8.40
2023-02-22T16:38:07.610Z,8.10
2023-02-22T16:40:44.805Z,7.73
2023-02-22T16:43:20.601Z,7.53
2023-02-22T16:45:50.322Z,7.30
2023-02-22T16:48:24.195Z,7.80
2023-02-22T16:50:52.610Z,8.27
2023-02-22T16:53:22.257Z,7.37
2023-02-22T16:55:50.974Z,8.07
2023-02-22T16:58:19.500Z,7.53
2023-02-22T17:00:45.943Z,8.10
2023-02-22T17:03:18.132Z,8.17
2023-02-22T17:05:45.232Z,9.20
2023-02-22T17:08:11.837Z,8.97
2023-02-22T17:10:38.739Z,8.57
2023-02-22T17:13:21.311Z,8.00
2023-02-22T17:15:49.415Z,8.07
2023-02-22T17:18:22.729Z,8.10
2023-02-22T17:20:51.135Z,7.63
2023-02-22T17:23:19.157Z,8.70
2023-02-22T17:25:59.326Z,8.90
2023-02-22T17:28:27.184Z,8.97
2023-02-22T17:31:00.801Z,8.27
2023-02-22T17:33:39.995Z,8.23
2023-02-22T17:36:07.273Z,8.50
2023-02-22T17:38:34.914Z,9.17
2023-02-22T17:41:01.960Z,8.43
2023-02-22T17:43:29.016Z,8.20
2023-02-22T17:45:56.488Z,8.53
2023-02-22T17:48:24.292Z,8.70
2023-02-22T17:50:52.112Z,7.07
2023-02-22T17:53:22.667Z,8.43
2023-02-22T17:55:49.728Z,7.60
2023-02-22T17:58:17.203Z,7.73
2023-02-22T18:00:50.102Z,7.80
2023-02-22T18:03:39.590Z,7.40
2023-02-22T18:06:06.887Z,7.57
2023-02-22T18:08:33.686Z,7.47
2023-02-22T18:11:05.512Z,7.67
2023-02-22T18:13:32.871Z,8.13
2023-02-22T18:16:00.220Z,8.93
2023-02-22T18:18:27.114Z,8.60
2023-02-22T18:20:59.412Z,7.90
2023-02-22T18:23:28.321Z,8.27
2023-02-22T18:26:09.690Z,9.43
2023-02-22T18:28:37.662Z,9.97
2023-02-22T18:31:24.272Z,8.10
2023-02-22T18:33:52.997Z,9.33
2023-02-22T18:36:33.489Z,8.30
2023-02-22T18:39:00.262Z,8.10
2023-02-22T18:41:27.049Z,9.40
2023-02-22T18:43:57.958Z,8.67
2023-02-22T18:46:25.111Z,10.93
2023-02-22T18:48:56.217Z,10.73
2023-02-22T18:51:24.244Z,11.27
2023-02-22T18:53:57.126Z,11.17
2023-02-22T18:56:25.624Z,9.63
2023-02-22T18:58:57.356Z,9.43
2023-02-22T19:01:24.307Z,8.80
2023-02-22T19:03:52.219Z,9.97
2023-02-22T19:06:22.620Z,9.33
2023-02-22T19:08:52.238Z,9.33
2023-02-22T19:11:27.422Z,9.60
2023-02-22T19:13:57.600Z,9.30
2023-02-22T19:16:26.826Z,9.77
2023-02-22T19:18:57.212Z,10.37
2023-02-22T19:21:28.358Z,9.40
2023-02-22T19:23:55.357Z,9.40
2023-02-22T19:26:24.843Z,9.27
2023-02-22T19:29:01.704Z,8.57
2023-02-22T19:31:34.099Z,8.97
2023-02-22T19:34:13.596Z,8.90
2023-02-22T19:36:45.140Z,8.77
2023-02-22T19:39:13.495Z,8.80
2023-02-22T19:41:40.315Z,9.67
2023-02-22T19:44:10.478Z,9.10
2023-02-22T19:46:37.867Z,8.70
2023-02-22T19:49:06.464Z,10.77
2023-02-22T19:51:34.127Z,9.93
2023-02-22T19:54:05.095Z,9.10
2023-02-22T19:56:32.630Z,8.83
2023-02-22T19:59:03.198Z,9.23
2023-02-22T20:01:33.232Z,9.20
2023-02-22T20:04:08.500Z,9.17
2023-02-22T20:06:40.348Z,8.07
2023-02-22T20:09:09.613Z,9.17
2023-02-22T20:11:36.414Z,9.57
2023-02-22T20:14:06.690Z,10.57
2023-02-22T20:16:34.703Z,9.47
2023-02-22T20:19:01.732Z,9.60
2023-02-22T20:21:31.793Z,9.80
2023-02-22T20:24:10.712Z,9.33
2023-02-22T20:26:38.869Z,9.10
2023-02-22T20:29:09.694Z,10.03
2023-02-22T20:31:38.318Z,9.77
2023-02-22T20:34:09.810Z,9.57
2023-02-22T20:36:39.016Z,9.13
2023-02-22T20:39:13.626Z,9.80
2023-02-22T20:41:46.268Z,9.87
2023-02-22T20:44:15.357Z,10.20
2023-02-22T20:46:43.353Z,9.17
2023-02-22T20:49:15.127Z,8.87
2023-02-22T20:51:42.061Z,9.40
2023-02-22T20:54:12.346Z,8.90
2023-02-22T20:56:42.478Z,8.90
2023-02-22T20:59:12.823Z,10.07
2023-02-22T21:01:39.716Z,9.03
2023-02-22T21:04:08.214Z,10.93
2023-02-22T21:06:37.545Z,10.20
2023-02-22T21:09:08.057Z,10.03
2023-02-22T21:11:35.437Z,9.00
2023-02-22T21:14:02.979Z,10.33
2023-02-22T21:16:33.396Z,10.70
2023-02-22T21:19:02.822Z,9.80
2023-02-22T21:21:30.236Z,10.53
2023-02-22T21:24:01.795Z,9.77
2023-02-22T21:26:32.365Z,10.20
2023-02-22T21:29:06.765Z,9.97
2023-02-22T21:31:34.603Z,10.07
2023-02-22T21:34:01.893Z,9.10
2023-02-22T21:36:29.362Z,9.90
2023-02-22T21:38:58.565Z,9.43
2023-02-22T21:41:29.259Z,9.27
2023-02-22T21:43:58.447Z,9.77
2023-02-22T21:46:27.721Z,10.10
2023-02-22T21:48:57.930Z,9.57
2023-02-22T21:51:33.354Z,10.70
2023-02-22T21:54:07.111Z,9.43
2023-02-22T21:56:39.992Z,9.97
2023-02-22T21:59:11.758Z,9.87
2023-02-22T22:01:47.526Z,10.63
2023-02-22T22:04:18.990Z,9.57
2023-02-22T22:06:51.653Z,9.90
2023-02-22T22:09:19.690Z,10.17
2023-02-22T22:11:53.347Z,10.60
2023-02-22T22:14:24.000Z,10.07
2023-02-22T22:16:53.036Z,10.70
2023-02-22T22:19:20.266Z,10.60
2023-02-22T22:21:47.155Z,10.33
2023-02-22T22:24:13.829Z,9.83
2023-02-22T22:26:40.709Z,10.03
2023-02-22T22:29:10.448Z,10.47
2023-02-22T22:31:37.979Z,10.33
2023-02-22T22:34:05.295Z,10.43
2023-02-22T22:36:34.343Z,10.43
2023-02-22T22:39:01.282Z,10.07
2023-02-22T22:41:28.376Z,10.17
2023-02-22T22:43:55.742Z,10.43
2023-02-22T22:46:22.649Z,9.80
2023-02-22T22:48:49.453Z,10.20
2023-02-22T22:51:20.459Z,10.47
2023-02-22T22:53:48.861Z,9.63
2023-02-22T22:56:18.754Z,10.13
2023-02-22T22:58:50.700Z,10.57
2023-02-22T23:01:20.339Z,9.73
2023-02-22T23:03:55.205Z,9.83
2023-02-22T23:06:30.877Z,9.53
2023-02-22T23:09:02.594Z,9.57
2023-02-22T23:11:34.116Z,9.43
2023-02-22T23:14:03.883Z,10.27
2023-02-22T23:16:32.486Z,11.20
2023-02-22T23:18:59.605Z,10.33
2023-02-22T23:21:27.471Z,9.83
2023-02-22T23:23:59.035Z,9.90
2023-02-22T23:26:26.956Z,9.67
2023-02-22T23:28:57.645Z,10.23
2023-02-22T23:31:27.108Z,10.03
2023-02-22T23:33:55.674Z,9.20
2023-02-22T23:36:22.516Z,9.57
2023-02-22T23:38:49.095Z,10.43
2023-02-22T23:41:17.503Z,9.80
2023-02-22T23:43:45.388Z,9.23
2023-02-22T23:46:18.418Z,9.87
2023-02-22T23:48:54.794Z,8.97
2023-02-22T23:51:28.687Z,9.50
2023-02-22T23:53:56.775Z,9.30
2023-02-22T23:56:26.580Z,9.07
2023-02-22T23:58:57.631Z,9.07
